createdAt,value
2018-09-27T00:00:45.740Z,9.68
2018-09-27T00:01:45.705Z,9.61
2018-09-27T00:02:45.713Z,9.42
2018-09-27T00:03:45.705Z,9.46
2018-09-27T00:04:45.699Z,9.27
2018-09-27T00:05:45.730Z,9.25
2018-09-27T00:06:45.694Z,9.20
2018-09-27T00:07:45.695Z,9.28
2018-09-27T00:08:45.685Z,9.52
2018-09-27T00:09:45.683Z,9.63
2018-09-27T00:10:45.709Z,9.82
2018-09-27T00:11:45.678Z,9.91
2018-09-27T00:12:45.674Z,9.94
2018-09-27T00:13:45.670Z,10.00
2018-09-27T00:14:45.667Z,9.93
2018-09-27T00:15:45.695Z,9.88
2018-09-27T00:16:45.666Z,9.82
2018-09-27T00:17:45.664Z,9.82
2018-09-27T00:18:45.659Z,9.67
2018-09-27T00:19:45.658Z,9.68
2018-09-27T00:20:45.675Z,9.58
2018-09-27T00:21:45.647Z,9.58
2018-09-27T00:22:45.654Z,9.53
2018-09-27T00:23:45.644Z,9.49
2018-09-27T00:24:45.639Z,9.50
2018-09-27T00:25:45.663Z,9.38
2018-09-27T00:26:45.636Z,9.38
2018-09-27T00:27:45.631Z,9.40
2018-09-27T00:28:45.767Z,9.45
2018-09-27T00:29:45.625Z,9.31
2018-09-27T00:30:45.647Z,9.23
2018-09-27T00:31:45.651Z,9.18
2018-09-27T00:32:45.617Z,9.04
2018-09-27T00:33:45.611Z,9.02
2018-09-27T00:34:45.609Z,8.99
2018-09-27T00:35:45.608Z,9.01
2018-09-27T00:36:45.628Z,8.90
2018-09-27T00:37:45.603Z,8.86
2018-09-27T00:38:45.596Z,8.86
2018-09-27T00:39:45.597Z,8.78
2018-09-27T00:40:45.616Z,8.83
2018-09-27T00:41:45.584Z,8.72
2018-09-27T00:42:45.585Z,8.63
2018-09-27T00:43:45.584Z,8.58
2018-09-27T00:44:45.577Z,8.47
2018-09-27T00:45:45.607Z,8.40
2018-09-27T00:46:45.572Z,8.21
2018-09-27T00:47:45.568Z,8.22
2018-09-27T00:48:45.700Z,8.18
2018-09-27T00:49:45.566Z,8.29
2018-09-27T00:50:45.605Z,8.29
2018-09-27T00:51:45.587Z,8.39
2018-09-27T00:52:45.548Z,8.35
2018-09-27T00:53:45.553Z,8.29
2018-09-27T00:54:45.546Z,8.22
2018-09-27T00:55:45.543Z,8.21
2018-09-27T00:56:45.571Z,8.15
2018-09-27T00:57:45.537Z,8.17
2018-09-27T00:58:45.534Z,8.15
2018-09-27T00:59:45.532Z,8.12
2018-09-27T01:00:45.526Z,8.07
2018-09-27T01:01:45.558Z,8.03
2018-09-27T01:02:45.521Z,8.03
2018-09-27T01:03:45.516Z,7.94
2018-09-27T01:04:45.516Z,7.94
2018-09-27T01:05:45.512Z,7.96
2018-09-27T01:06:45.544Z,7.94
2018-09-27T01:07:45.533Z,7.96
2018-09-27T01:08:45.498Z,7.94
2018-09-27T01:09:45.495Z,7.93
2018-09-27T01:10:45.496Z,7.90
2018-09-27T01:11:45.495Z,7.82
2018-09-27T01:12:45.517Z,7.82
2018-09-27T01:13:45.488Z,7.75
2018-09-27T01:14:45.483Z,7.63
2018-09-27T01:15:45.474Z,7.71
2018-09-27T01:16:45.499Z,7.60
2018-09-27T01:17:45.469Z,7.56
2018-09-27T01:18:45.462Z,7.62
2018-09-27T01:19:45.469Z,7.69
2018-09-27T01:20:45.464Z,7.72
2018-09-27T01:21:45.484Z,7.63
2018-09-27T01:22:45.458Z,7.74
2018-09-27T01:23:45.446Z,7.82
2018-09-27T01:24:45.446Z,7.82
2018-09-27T01:25:45.444Z,7.81
2018-09-27T01:26:45.463Z,7.78
2018-09-27T01:27:45.439Z,7.74
2018-09-27T01:28:45.475Z,7.77
2018-09-27T01:29:45.431Z,7.71
2018-09-27T01:30:45.429Z,7.66
2018-09-27T01:31:45.454Z,7.63
2018-09-27T01:32:45.423Z,7.63
2018-09-27T01:33:45.415Z,7.63
2018-09-27T01:34:45.411Z,7.75
2018-09-27T01:35:45.407Z,7.77
2018-09-27T01:36:45.430Z,7.79
2018-09-27T01:37:45.404Z,7.77
2018-09-27T01:38:45.399Z,7.81
2018-09-27T01:39:45.391Z,7.79
2018-09-27T01:40:45.391Z,7.81
2018-09-27T01:41:45.429Z,7.85
2018-09-27T01:42:45.383Z,7.92
2018-09-27T01:43:45.385Z,7.94
2018-09-27T01:44:45.379Z,7.93
2018-09-27T01:45:45.378Z,7.99
2018-09-27T01:46:45.396Z,8.03
2018-09-27T01:47:45.366Z,7.94
2018-09-27T01:48:45.360Z,8.00
2018-09-27T01:49:45.355Z,8.17
2018-09-27T01:50:45.357Z,8.32
2018-09-27T01:51:45.381Z,8.37
2018-09-27T01:52:45.348Z,8.50
2018-09-27T01:53:45.343Z,8.50
2018-09-27T01:54:45.335Z,8.55
2018-09-27T01:55:45.338Z,8.72
2018-09-27T01:56:45.370Z,8.78
2018-09-27T01:57:45.358Z,8.78
2018-09-27T01:58:45.322Z,8.91
2018-09-27T01:59:45.325Z,8.76
2018-09-27T02:00:45.321Z,8.87
2018-09-27T02:01:45.317Z,8.73
2018-09-27T02:02:45.337Z,8.79
2018-09-27T02:03:45.309Z,8.71
2018-09-27T02:04:45.304Z,8.72
2018-09-27T02:05:45.303Z,8.63
2018-09-27T02:06:45.333Z,8.62
2018-09-27T02:07:45.296Z,8.62
2018-09-27T02:08:45.294Z,8.71
2018-09-27T02:09:45.288Z,8.63
2018-09-27T02:10:45.285Z,8.68
2018-09-27T02:11:45.308Z,8.71
2018-09-27T02:12:45.274Z,8.60
2018-09-27T02:13:45.276Z,8.51
2018-09-27T02:14:45.272Z,8.54
2018-09-27T02:15:45.269Z,8.53
2018-09-27T02:16:45.294Z,8.33
2018-09-27T02:17:45.259Z,8.30
2018-09-27T02:18:45.257Z,8.32
2018-09-27T02:19:45.254Z,8.30
2018-09-27T02:20:45.249Z,8.35
2018-09-27T02:21:45.274Z,8.32
2018-09-27T02:22:45.242Z,8.28
2018-09-27T02:23:45.241Z,8.32
2018-09-27T02:24:45.239Z,8.30
2018-09-27T02:25:45.271Z,8.37
2018-09-27T02:26:45.232Z,8.29
2018-09-27T02:27:45.256Z,8.30
2018-09-27T02:28:45.225Z,8.30
2018-09-27T02:29:45.226Z,8.26
2018-09-27T02:30:45.220Z,8.28
2018-09-27T02:31:45.243Z,8.35
2018-09-27T02:32:45.210Z,8.42
2018-09-27T02:33:45.204Z,8.42
2018-09-27T02:34:45.205Z,8.37
2018-09-27T02:35:45.203Z,8.35
2018-09-27T02:36:45.225Z,8.28
2018-09-27T02:37:45.197Z,8.30
2018-09-27T02:38:45.191Z,8.37
2018-09-27T02:39:45.189Z,8.37
2018-09-27T02:40:45.187Z,8.35
2018-09-27T02:41:45.204Z,8.33
2018-09-27T02:42:45.181Z,8.28
2018-09-27T02:43:45.175Z,8.35
2018-09-27T02:44:45.171Z,8.40
2018-09-27T02:45:45.173Z,8.42
2018-09-27T02:46:45.193Z,8.32
2018-09-27T02:47:45.163Z,8.30
2018-09-27T02:48:45.155Z,8.33
2018-09-27T02:49:45.161Z,8.28
2018-09-27T02:50:45.152Z,8.25
2018-09-27T02:51:45.175Z,8.10
2018-09-27T02:52:45.173Z,8.11
2018-09-27T02:53:45.139Z,8.10
2018-09-27T02:54:45.135Z,8.08
2018-09-27T02:55:45.138Z,8.11
2018-09-27T02:56:45.124Z,8.11
2018-09-27T02:57:45.152Z,8.11
2018-09-27T02:58:45.372Z,8.17
2018-09-27T02:59:45.120Z,8.10
2018-09-27T03:00:45.121Z,8.12
2018-09-27T03:01:45.112Z,7.99
2018-09-27T03:02:45.140Z,8.14
2018-09-27T03:03:45.108Z,8.18
2018-09-27T03:04:45.100Z,8.26
2018-09-27T03:05:45.099Z,8.40
2018-09-27T03:06:45.097Z,8.44
2018-09-27T03:07:45.120Z,8.44
2018-09-27T03:08:45.088Z,8.44
2018-09-27T03:09:45.084Z,8.48
2018-09-27T03:10:45.082Z,8.53
2018-09-27T03:11:45.080Z,8.51
2018-09-27T03:12:45.095Z,8.55
2018-09-27T03:13:45.125Z,8.65
2018-09-27T03:14:45.073Z,8.60
2018-09-27T03:15:45.065Z,8.62
2018-09-27T03:16:45.060Z,8.78
2018-09-27T03:17:45.081Z,8.68
2018-09-27T03:18:45.056Z,8.72
2018-09-27T03:19:45.049Z,8.81
2018-09-27T03:20:45.087Z,8.79
2018-09-27T03:21:45.040Z,8.79
2018-09-27T03:22:45.070Z,8.78
2018-09-27T03:23:45.038Z,8.75
2018-09-27T03:24:45.033Z,8.68
2018-09-27T03:25:45.036Z,8.55
2018-09-27T03:26:45.029Z,8.69
2018-09-27T03:27:45.050Z,8.53
2018-09-27T03:28:45.017Z,8.58
2018-09-27T03:29:45.018Z,8.53
2018-09-27T03:30:45.020Z,8.51
2018-09-27T03:31:45.011Z,8.48
2018-09-27T03:32:45.034Z,8.32
2018-09-27T03:33:45.001Z,8.33
2018-09-27T03:34:44.993Z,8.30
2018-09-27T03:35:44.998Z,8.36
2018-09-27T03:36:44.995Z,8.20
2018-09-27T03:37:45.024Z,8.29
2018-09-27T03:38:44.991Z,8.25
2018-09-27T03:39:45.075Z,8.21
2018-09-27T03:40:45.041Z,8.07
2018-09-27T03:41:44.976Z,8.00
2018-09-27T03:42:44.998Z,8.11
2018-09-27T03:43:44.971Z,8.07
2018-09-27T03:44:44.968Z,8.07
2018-09-27T03:45:44.973Z,8.12
2018-09-27T03:46:44.962Z,8.08
2018-09-27T03:47:44.986Z,8.15
2018-09-27T03:48:44.950Z,8.14
2018-09-27T03:49:44.950Z,8.04
2018-09-27T03:50:44.947Z,8.08
2018-09-27T03:51:44.938Z,8.10
2018-09-27T03:52:44.967Z,7.96
2018-09-27T03:53:44.935Z,7.92
2018-09-27T03:54:44.930Z,7.94
2018-09-27T03:55:44.926Z,8.03
2018-09-27T03:56:44.920Z,7.94
2018-09-27T03:57:44.948Z,7.99
2018-09-27T03:58:44.919Z,7.94
2018-09-27T03:59:44.913Z,8.02
2018-09-27T04:00:44.911Z,7.96
2018-09-27T04:01:44.907Z,7.97
2018-09-27T04:02:44.933Z,8.04
2018-09-27T04:03:44.899Z,8.08
2018-09-27T04:04:54.339Z,8.07
2018-09-27T04:05:44.862Z,8.08
2018-09-27T04:06:44.856Z,8.17
2018-09-27T04:07:44.877Z,8.15
2018-09-27T04:08:44.847Z,8.12
2018-09-27T04:09:44.849Z,8.07
2018-09-27T04:10:44.843Z,8.11
2018-09-27T04:11:44.840Z,8.14
2018-09-27T04:12:44.929Z,8.07
2018-09-27T04:13:44.829Z,8.10
2018-09-27T04:14:44.829Z,8.02
2018-09-27T04:15:44.881Z,8.17
2018-09-27T04:16:44.821Z,8.18
2018-09-27T04:17:44.855Z,8.32
2018-09-27T04:18:44.837Z,8.28
2018-09-27T04:19:44.809Z,8.29
2018-09-27T04:20:44.815Z,8.18
2018-09-27T04:21:44.826Z,8.00
2018-09-27T04:22:44.804Z,7.87
2018-09-27T04:23:44.827Z,7.74
2018-09-27T04:24:44.791Z,7.74
2018-09-27T04:25:45.429Z,7.58
2018-09-27T04:26:44.785Z,7.55
2018-09-27T04:27:44.835Z,7.42
2018-09-27T04:28:44.802Z,7.35
2018-09-27T04:29:44.778Z,7.32
2018-09-27T04:30:44.772Z,7.42
2018-09-27T04:31:44.771Z,7.37
2018-09-27T04:32:44.761Z,7.38
2018-09-27T04:33:44.844Z,7.31
2018-09-27T04:34:44.759Z,7.29
2018-09-27T04:35:44.755Z,7.24
2018-09-27T04:36:44.760Z,7.32
2018-09-27T04:37:44.750Z,7.31
2018-09-27T04:38:44.768Z,7.38
2018-09-27T04:39:44.762Z,7.29
2018-09-27T04:40:44.743Z,7.45
2018-09-27T04:41:44.733Z,7.45
2018-09-27T04:42:44.727Z,7.63
2018-09-27T04:43:44.759Z,7.60
2018-09-27T04:44:44.718Z,7.74
2018-09-27T04:45:44.722Z,7.69
2018-09-27T04:46:44.761Z,7.74
2018-09-27T04:47:44.733Z,7.72
2018-09-27T04:48:44.710Z,7.67
2018-09-27T04:49:44.699Z,7.67
2018-09-27T04:50:44.699Z,7.75
2018-09-27T04:51:44.704Z,7.75
2018-09-27T04:52:44.716Z,7.78
2018-09-27T04:53:44.683Z,7.85
2018-09-27T04:54:44.681Z,7.94
2018-09-27T04:55:44.679Z,7.87
2018-09-27T04:56:44.677Z,7.99
2018-09-27T04:57:44.708Z,7.96
2018-09-27T04:58:44.672Z,7.97
2018-09-27T04:59:44.700Z,8.00
2018-09-27T05:00:44.663Z,8.11
2018-09-27T05:01:44.661Z,8.10
2018-09-27T05:02:44.654Z,8.08
2018-09-27T05:03:44.719Z,7.90
2018-09-27T05:04:44.655Z,7.93
2018-09-27T05:05:44.642Z,7.82
2018-09-27T05:06:44.649Z,7.82
2018-09-27T05:07:44.667Z,7.93
2018-09-27T05:08:44.634Z,8.00
2018-09-27T05:09:44.751Z,8.10
2018-09-27T05:10:44.639Z,8.02
2018-09-27T05:11:44.628Z,7.94
2018-09-27T05:12:44.646Z,8.02
2018-09-27T05:13:44.616Z,8.18
2018-09-27T05:14:44.612Z,8.22
2018-09-27T05:15:44.617Z,8.35
2018-09-27T05:16:44.608Z,8.39
2018-09-27T05:17:44.631Z,8.54
2018-09-27T05:18:44.606Z,8.50
2018-09-27T05:19:44.602Z,8.29
2018-09-27T05:20:44.594Z,8.18
2018-09-27T05:21:44.861Z,8.25
2018-09-27T05:22:44.618Z,8.22
2018-09-27T05:23:44.583Z,8.18
2018-09-27T05:24:44.579Z,8.15
2018-09-27T05:25:44.588Z,8.25
2018-09-27T05:26:44.572Z,8.20
2018-09-27T05:27:45.145Z,8.25
2018-09-27T05:28:44.757Z,8.25
2018-09-27T05:29:44.635Z,8.26
2018-09-27T05:30:46.767Z,8.32
2018-09-27T05:31:44.557Z,8.37
2018-09-27T05:32:44.692Z,8.25
2018-09-27T05:33:45.243Z,8.48
2018-09-27T05:34:44.545Z,8.58
2018-09-27T05:35:46.284Z,8.57
2018-09-27T05:36:45.553Z,8.57
2018-09-27T05:37:45.744Z,8.66
2018-09-27T05:38:44.538Z,8.69
2018-09-27T05:39:45.354Z,8.76
2018-09-27T05:40:44.530Z,8.88
2018-09-27T05:41:44.526Z,8.91
2018-09-27T05:42:44.554Z,8.88
2018-09-27T05:43:44.573Z,8.97
2018-09-27T05:44:46.066Z,9.13
2018-09-27T05:45:46.175Z,9.15
2018-09-27T05:46:44.689Z,9.28
2018-09-27T05:47:44.922Z,9.24
2018-09-27T05:48:44.514Z,9.28
2018-09-27T05:49:44.533Z,9.31
2018-09-27T05:50:44.501Z,9.23
2018-09-27T05:51:44.499Z,9.09
2018-09-27T05:52:44.491Z,9.06
2018-09-27T05:53:44.521Z,9.10
2018-09-27T05:54:44.487Z,9.06
2018-09-27T05:55:44.544Z,9.30
2018-09-27T05:56:44.484Z,9.23
2018-09-27T05:57:44.485Z,9.28
2018-09-27T05:58:44.500Z,9.49
2018-09-27T05:59:44.475Z,9.56
2018-09-27T06:00:44.470Z,9.56
2018-09-27T06:01:44.471Z,9.64
2018-09-27T06:02:44.465Z,9.78
2018-09-27T06:03:44.578Z,9.81
2018-09-27T06:04:44.490Z,9.82
2018-09-27T06:05:44.461Z,9.96
2018-09-27T06:06:44.457Z,10.19
2018-09-27T06:07:44.455Z,10.28
2018-09-27T06:08:44.474Z,10.36
2018-09-27T06:09:44.506Z,10.43
2018-09-27T06:10:44.448Z,10.40
2018-09-27T06:11:44.448Z,10.37
2018-09-27T06:12:44.463Z,10.42
2018-09-27T06:13:44.438Z,10.34
2018-09-27T06:14:44.438Z,10.36
2018-09-27T06:15:44.437Z,10.51
2018-09-27T06:16:44.432Z,10.59
2018-09-27T06:17:44.451Z,10.63
2018-09-27T06:18:44.428Z,10.63
2018-09-27T06:19:44.467Z,10.68
2018-09-27T06:20:44.420Z,10.71
2018-09-27T06:21:44.424Z,10.74
2018-09-27T06:22:44.443Z,10.70
2018-09-27T06:23:44.414Z,11.11
2018-09-27T06:24:44.436Z,11.25
2018-09-27T06:25:44.413Z,11.11
2018-09-27T06:26:44.418Z,11.06
2018-09-27T06:27:44.446Z,10.98
2018-09-27T06:28:44.410Z,11.01
2018-09-27T06:29:44.402Z,10.98
2018-09-27T06:30:44.429Z,10.96
2018-09-27T06:31:44.402Z,11.31
2018-09-27T06:32:44.399Z,11.72
2018-09-27T06:33:44.498Z,11.80
2018-09-27T06:34:44.397Z,12.44
2018-09-27T06:35:44.394Z,12.41
2018-09-27T06:36:44.394Z,12.38
2018-09-27T06:37:44.398Z,12.57
2018-09-27T06:38:44.469Z,13.24
2018-09-27T06:39:44.389Z,14.04
2018-09-27T06:40:44.392Z,14.49
2018-09-27T06:41:44.390Z,14.78
2018-09-27T06:42:44.399Z,14.91
2018-09-27T06:43:44.409Z,14.61
2018-09-27T06:44:44.454Z,14.50
2018-09-27T06:45:44.383Z,14.87
2018-09-27T06:46:44.387Z,15.12
2018-09-27T06:47:44.384Z,15.20
2018-09-27T06:48:44.460Z,15.33
2018-09-27T06:49:44.386Z,15.05
2018-09-27T06:50:44.561Z,14.93
2018-09-27T06:51:44.385Z,14.81
2018-09-27T06:52:44.382Z,14.80
2018-09-27T06:53:44.387Z,15.08
2018-09-27T06:54:44.442Z,15.26
2018-09-27T06:55:44.465Z,15.63
2018-09-27T06:56:44.433Z,16.01
2018-09-27T06:57:44.386Z,16.30
2018-09-27T06:58:44.389Z,16.63
2018-09-27T06:59:44.419Z,16.92
2018-09-27T07:00:44.416Z,16.96
2018-09-27T07:01:44.400Z,16.90
2018-09-27T07:02:44.476Z,16.71
2018-09-27T07:03:44.402Z,16.55
2018-09-27T07:04:44.437Z,16.50
2018-09-27T07:05:44.408Z,16.74
2018-09-27T07:06:44.409Z,16.88
2018-09-27T07:07:44.409Z,16.88
2018-09-27T07:08:44.469Z,17.06
2018-09-27T07:09:44.441Z,17.20
2018-09-27T07:10:44.415Z,17.46
2018-09-27T07:11:44.425Z,17.84
2018-09-27T07:12:44.471Z,18.07
2018-09-27T07:13:44.426Z,18.10
2018-09-27T07:14:44.455Z,18.33
2018-09-27T07:15:44.470Z,17.84
2018-09-27T07:16:44.439Z,17.41
2018-09-27T07:17:44.439Z,16.89
2018-09-27T07:18:44.503Z,16.06
2018-09-27T07:19:44.443Z,15.45
2018-09-27T07:20:44.488Z,15.15
2018-09-27T07:21:44.452Z,15.21
2018-09-27T07:22:44.457Z,15.35
2018-09-27T07:23:44.487Z,15.20
2018-09-27T07:24:44.462Z,15.23
2018-09-27T07:25:44.469Z,15.56
2018-09-27T07:26:44.602Z,15.84
2018-09-27T07:27:44.468Z,15.72
2018-09-27T07:28:44.497Z,15.64
2018-09-27T07:29:44.477Z,15.49
2018-09-27T07:30:44.482Z,15.64
2018-09-27T07:31:44.484Z,15.79
2018-09-27T07:32:44.586Z,15.60
2018-09-27T07:33:44.492Z,15.61
2018-09-27T07:34:44.498Z,15.61
2018-09-27T07:35:44.499Z,15.79
2018-09-27T07:36:44.572Z,16.30
2018-09-27T07:37:44.532Z,16.55
2018-09-27T07:38:44.589Z,16.90
2018-09-27T07:39:44.515Z,16.89
2018-09-27T07:40:44.519Z,16.33
2018-09-27T07:41:44.524Z,16.11
2018-09-27T07:42:44.634Z,15.82
2018-09-27T07:43:44.530Z,15.79
2018-09-27T07:44:44.528Z,15.49
2018-09-27T07:45:44.533Z,15.68
2018-09-27T07:46:44.544Z,15.93
2018-09-27T07:47:44.567Z,16.16
2018-09-27T07:48:44.548Z,16.50
2018-09-27T07:49:44.554Z,16.52
2018-09-27T07:50:44.558Z,16.50
2018-09-27T07:51:44.553Z,16.63
2018-09-27T07:52:44.585Z,16.90
2018-09-27T07:53:44.570Z,16.88
2018-09-27T07:54:44.604Z,16.98
2018-09-27T07:55:44.575Z,16.99
2018-09-27T07:56:44.575Z,17.14
2018-09-27T07:57:44.607Z,17.43
2018-09-27T07:58:44.589Z,17.59
2018-09-27T07:59:44.588Z,17.82
2018-09-27T08:00:44.592Z,18.04
2018-09-27T08:01:44.597Z,18.18
2018-09-27T08:02:44.721Z,18.36
2018-09-27T08:03:44.600Z,18.46
2018-09-27T08:04:44.607Z,18.52
2018-09-27T08:05:44.706Z,18.49
2018-09-27T08:06:44.614Z,18.74
2018-09-27T08:07:44.646Z,18.72
2018-09-27T08:08:45.479Z,18.90
2018-09-27T08:09:45.929Z,18.86
2018-09-27T08:10:44.633Z,18.79
2018-09-27T08:11:44.661Z,18.82
2018-09-27T08:12:44.664Z,18.64
2018-09-27T08:13:44.641Z,18.52
2018-09-27T08:14:44.667Z,18.37
2018-09-27T08:15:44.659Z,18.37
2018-09-27T08:16:45.610Z,18.43
2018-09-27T08:17:44.693Z,18.50
2018-09-27T08:18:44.698Z,18.47
2018-09-27T08:19:44.668Z,18.68
2018-09-27T08:20:44.828Z,18.73
2018-09-27T08:21:44.679Z,19.01
2018-09-27T08:22:45.634Z,19.31
2018-09-27T08:23:44.713Z,19.57
2018-09-27T08:24:44.691Z,19.60
2018-09-27T08:25:44.704Z,19.38
2018-09-27T08:26:44.704Z,19.23
2018-09-27T08:27:44.713Z,18.94
2018-09-27T08:28:44.743Z,18.61
2018-09-27T08:29:44.851Z,18.40
2018-09-27T08:30:44.776Z,17.84
2018-09-27T08:31:44.735Z,17.70
2018-09-27T08:32:44.801Z,17.73
2018-09-27T08:33:44.771Z,17.84
2018-09-27T08:34:44.755Z,18.09
2018-09-27T08:35:44.759Z,18.55
2018-09-27T08:36:44.794Z,19.13
2018-09-27T08:37:44.778Z,19.46
2018-09-27T08:38:44.863Z,19.86
2018-09-27T08:39:44.782Z,20.05
2018-09-27T08:40:44.787Z,20.39
2018-09-27T08:41:44.800Z,20.51
2018-09-27T08:42:44.804Z,20.76
2018-09-27T08:43:44.850Z,20.91
2018-09-27T08:44:44.895Z,21.17
2018-09-27T08:45:44.922Z,21.50
2018-09-27T08:46:44.855Z,21.53
2018-09-27T08:47:44.837Z,21.53
2018-09-27T08:48:44.845Z,21.61
2018-09-27T08:49:44.877Z,21.91
2018-09-27T08:50:44.859Z,22.35
2018-09-27T08:51:44.873Z,22.43
2018-09-27T08:52:44.876Z,22.75
2018-09-27T08:53:44.886Z,22.94
2018-09-27T08:54:44.922Z,23.04
2018-09-27T08:55:45.073Z,23.17
2018-09-27T08:56:44.915Z,23.65
2018-09-27T08:57:44.929Z,23.50
2018-09-27T08:58:44.961Z,23.67
2018-09-27T08:59:44.947Z,23.83
2018-09-27T09:00:44.957Z,23.95
2018-09-27T09:01:44.969Z,24.47
2018-09-27T09:02:44.980Z,24.87
2018-09-27T09:03:45.112Z,24.98
2018-09-27T09:04:45.003Z,25.12
2018-09-27T09:05:45.022Z,25.10
2018-09-27T09:06:45.028Z,25.15
2018-09-27T09:07:45.131Z,25.37
2018-09-27T09:08:45.085Z,25.47
2018-09-27T09:09:45.065Z,25.82
2018-09-27T09:10:45.083Z,25.89
2018-09-27T09:11:45.089Z,25.80
2018-09-27T09:12:45.115Z,25.42
2018-09-27T09:13:45.226Z,25.22
2018-09-27T09:14:45.159Z,25.31
2018-09-27T09:15:45.149Z,25.25
2018-09-27T09:16:45.159Z,25.71
2018-09-27T09:17:45.177Z,25.86
2018-09-27T09:18:45.214Z,25.99
2018-09-27T09:19:45.236Z,26.09
2018-09-27T09:20:45.222Z,26.24
2018-09-27T09:21:45.232Z,26.42
2018-09-27T09:22:45.248Z,26.40
2018-09-27T09:23:45.292Z,26.27
2018-09-27T09:24:45.281Z,26.32
2018-09-27T09:25:45.304Z,26.58
2018-09-27T09:26:45.330Z,26.80
2018-09-27T09:27:45.896Z,27.01
2018-09-27T09:28:45.367Z,27.19
2018-09-27T09:29:45.530Z,27.19
2018-09-27T09:30:45.440Z,27.05
2018-09-27T09:31:45.399Z,27.21
2018-09-27T09:32:45.407Z,27.28
2018-09-27T09:33:45.525Z,27.04
2018-09-27T09:34:46.396Z,27.26
2018-09-27T09:35:45.512Z,27.41
2018-09-27T09:36:45.475Z,27.23
2018-09-27T09:37:45.495Z,27.39
2018-09-27T09:38:45.535Z,27.54
2018-09-27T09:39:45.551Z,27.28
2018-09-27T09:40:45.540Z,27.26
2018-09-27T09:41:45.560Z,27.31
2018-09-27T09:42:45.581Z,27.09
2018-09-27T09:43:45.620Z,26.99
2018-09-27T09:44:45.611Z,26.77
2018-09-27T09:45:45.627Z,26.57
2018-09-27T09:46:45.646Z,26.37
2018-09-27T09:47:45.665Z,26.65
2018-09-27T09:48:45.715Z,26.86
2018-09-27T09:49:45.711Z,26.83
2018-09-27T09:50:45.718Z,26.50
2018-09-27T09:51:45.732Z,26.72
2018-09-27T09:52:45.751Z,27.09
2018-09-27T09:53:45.794Z,27.09
2018-09-27T09:54:45.811Z,26.91
2018-09-27T09:55:45.805Z,26.76
2018-09-27T09:56:45.818Z,26.58
2018-09-27T09:57:45.835Z,26.80
2018-09-27T09:58:45.853Z,26.81
2018-09-27T09:59:45.903Z,26.99
2018-09-27T10:00:45.889Z,27.23
2018-09-27T10:01:45.903Z,27.06
2018-09-27T10:02:45.921Z,27.04
2018-09-27T10:03:45.939Z,27.04
2018-09-27T10:04:45.981Z,27.09
2018-09-27T10:05:45.974Z,26.55
2018-09-27T10:06:45.992Z,26.36
2018-09-27T10:07:46.012Z,26.64
2018-09-27T10:08:46.070Z,27.13
2018-09-27T10:09:46.048Z,27.67
2018-09-27T10:10:46.065Z,28.19
2018-09-27T10:11:46.083Z,28.31
2018-09-27T10:12:46.101Z,28.14
2018-09-27T10:13:46.146Z,28.40
2018-09-27T10:14:46.144Z,28.51
2018-09-27T10:15:46.165Z,28.81
2018-09-27T10:16:46.177Z,28.84
2018-09-27T10:17:46.202Z,28.93
2018-09-27T10:18:46.244Z,28.84
2018-09-27T10:19:46.236Z,28.50
2018-09-27T10:20:46.260Z,27.94
2018-09-27T10:21:46.379Z,27.67
2018-09-27T10:22:46.298Z,27.20
2018-09-27T10:23:46.351Z,27.38
2018-09-27T10:24:46.330Z,27.38
2018-09-27T10:25:47.982Z,27.43
2018-09-27T10:26:46.369Z,27.86
2018-09-27T10:27:46.388Z,28.14
2018-09-27T10:28:46.439Z,28.03
2018-09-27T10:29:46.432Z,27.96
2018-09-27T10:30:46.447Z,28.06
2018-09-27T10:31:46.464Z,28.43
2018-09-27T10:32:46.498Z,28.25
2018-09-27T10:33:46.536Z,28.63
2018-09-27T10:34:46.588Z,28.47
2018-09-27T10:35:46.542Z,28.38
2018-09-27T10:36:46.564Z,28.38
2018-09-27T10:37:46.590Z,28.35
2018-09-27T10:38:46.634Z,28.87
2018-09-27T10:39:46.625Z,29.03
2018-09-27T10:40:46.644Z,29.15
2018-09-27T10:41:46.666Z,28.84
2018-09-27T10:42:46.679Z,28.53
2018-09-27T10:43:46.739Z,28.51
2018-09-27T10:44:46.745Z,28.72
2018-09-27T10:45:46.742Z,28.87
2018-09-27T10:46:46.773Z,29.00
2018-09-27T10:47:46.780Z,29.03
2018-09-27T10:48:46.826Z,29.37
2018-09-27T10:49:46.851Z,29.55
2018-09-27T10:50:46.839Z,29.87
2018-09-27T10:51:46.868Z,29.70
2018-09-27T10:52:46.886Z,29.55
2018-09-27T10:53:46.935Z,29.26
2018-09-27T10:54:46.929Z,29.26
2018-09-27T10:55:46.947Z,29.40
2018-09-27T10:56:46.969Z,29.38
2018-09-27T10:57:46.989Z,29.38
2018-09-27T10:58:47.036Z,29.29
2018-09-27T10:59:47.097Z,29.50
2018-09-27T11:00:47.054Z,29.70
2018-09-27T11:01:47.069Z,29.77
2018-09-27T11:02:47.091Z,30.11
2018-09-27T11:03:47.156Z,30.30
2018-09-27T11:04:47.145Z,30.24
2018-09-27T11:05:47.224Z,30.16
2018-09-27T11:06:47.218Z,30.40
2018-09-27T11:07:47.229Z,30.52
2018-09-27T11:08:47.267Z,30.69
2018-09-27T11:09:47.275Z,30.53
2018-09-27T11:10:47.283Z,30.52
2018-09-27T11:11:47.301Z,30.52
2018-09-27T11:12:47.336Z,30.16
2018-09-27T11:13:47.385Z,30.02
2018-09-27T11:14:47.409Z,30.03
2018-09-27T11:15:47.384Z,30.19
2018-09-27T11:16:47.419Z,30.49
2018-09-27T11:17:47.452Z,30.67
2018-09-27T11:18:47.526Z,30.81
2018-09-27T11:19:47.480Z,30.86
2018-09-27T11:20:47.527Z,30.61
2018-09-27T11:21:47.538Z,30.31
2018-09-27T11:22:47.548Z,30.02
2018-09-27T11:23:48.511Z,30.27
2018-09-27T11:24:47.614Z,30.56
2018-09-27T11:25:47.644Z,30.29
2018-09-27T11:26:47.637Z,30.45
2018-09-27T11:27:47.695Z,30.21
2018-09-27T11:28:47.737Z,30.31
2018-09-27T11:29:47.708Z,30.18
2018-09-27T11:30:48.460Z,30.11
2018-09-27T11:31:47.763Z,29.97
2018-09-27T11:32:47.793Z,29.89
2018-09-27T11:33:47.820Z,29.71
2018-09-27T11:34:47.810Z,29.82
2018-09-27T11:35:47.857Z,29.79
2018-09-27T11:36:47.896Z,29.86
2018-09-27T11:37:47.889Z,30.23
2018-09-27T11:38:47.938Z,30.49
2018-09-27T11:39:47.932Z,30.46
2018-09-27T11:40:47.956Z,30.61
2018-09-27T11:41:47.993Z,30.49
2018-09-27T11:42:48.044Z,30.65
2018-09-27T11:43:48.049Z,30.64
2018-09-27T11:44:48.050Z,30.62
2018-09-27T11:45:48.076Z,31.02
2018-09-27T11:46:48.087Z,31.09
2018-09-27T11:47:48.153Z,31.18
2018-09-27T11:48:48.242Z,31.35
2018-09-27T11:49:48.211Z,31.49
2018-09-27T11:50:48.236Z,31.58
2018-09-27T11:51:48.202Z,31.55
2018-09-27T11:52:48.257Z,31.55
2018-09-27T11:53:48.230Z,31.40
2018-09-27T11:54:48.307Z,30.50
2018-09-27T11:55:48.288Z,29.89
2018-09-27T11:56:48.341Z,29.53
2018-09-27T11:57:48.345Z,29.52
2018-09-27T11:58:48.357Z,29.84
2018-09-27T11:59:48.418Z,30.37
2018-09-27T12:00:48.409Z,30.76
2018-09-27T12:01:48.419Z,30.76
2018-09-27T12:02:48.489Z,31.15
2018-09-27T12:03:48.483Z,31.40
2018-09-27T12:04:48.574Z,31.27
2018-09-27T12:05:48.576Z,31.08
2018-09-27T12:06:48.529Z,31.09
2018-09-27T12:07:48.562Z,30.67
2018-09-27T12:08:48.583Z,28.93
2018-09-27T12:09:48.632Z,26.58
2018-09-27T12:10:48.681Z,26.65
2018-09-27T12:11:48.707Z,27.31
2018-09-27T12:12:48.669Z,28.17
2018-09-27T12:13:48.702Z,28.85
2018-09-27T12:14:48.726Z,29.49
2018-09-27T12:15:48.739Z,29.72
2018-09-27T12:16:48.786Z,29.82
2018-09-27T12:17:48.781Z,30.00
2018-09-27T12:18:48.810Z,30.08
2018-09-27T12:19:48.846Z,30.23
2018-09-27T12:20:48.868Z,30.47
2018-09-27T12:21:48.880Z,30.64
2018-09-27T12:22:48.930Z,30.76
2018-09-27T12:23:48.905Z,30.90
2018-09-27T12:24:48.966Z,31.08
2018-09-27T12:25:48.932Z,31.26
2018-09-27T12:26:48.952Z,31.26
2018-09-27T12:27:48.986Z,31.43
2018-09-27T12:28:49.998Z,31.57
2018-09-27T12:29:49.044Z,31.39
2018-09-27T12:30:49.140Z,31.42
2018-09-27T12:31:49.069Z,31.57
2018-09-27T12:32:49.125Z,31.45
2018-09-27T12:33:49.106Z,31.70
2018-09-27T12:34:49.163Z,31.65
2018-09-27T12:35:49.203Z,31.93
2018-09-27T12:36:49.193Z,31.67
2018-09-27T12:37:49.193Z,31.77
2018-09-27T12:38:49.298Z,31.55
2018-09-27T12:39:49.279Z,31.53
2018-09-27T12:40:49.280Z,31.39
2018-09-27T12:41:49.361Z,31.60
2018-09-27T12:42:49.368Z,31.38
2018-09-27T12:43:49.365Z,31.54
2018-09-27T12:44:50.041Z,31.27
2018-09-27T12:45:49.456Z,31.21
2018-09-27T12:46:49.490Z,31.23
2018-09-27T12:47:49.431Z,31.15
2018-09-27T12:48:49.528Z,31.38
2018-09-27T12:49:49.470Z,31.43
2018-09-27T12:50:52.051Z,31.06
2018-09-27T12:51:49.637Z,31.12
2018-09-27T12:52:49.548Z,31.05
2018-09-27T12:53:49.573Z,31.36
2018-09-27T12:54:49.570Z,31.62
2018-09-27T12:55:49.585Z,31.77
2018-09-27T12:56:49.624Z,31.85
2018-09-27T12:57:49.637Z,31.79
2018-09-27T12:58:49.683Z,31.67
2018-09-27T12:59:49.670Z,31.35
2018-09-27T13:00:49.707Z,31.35
2018-09-27T13:01:49.862Z,31.64
2018-09-27T13:02:49.815Z,31.49
2018-09-27T13:03:49.803Z,31.43
2018-09-27T13:04:50.574Z,31.40